createdAt,value
2017-08-30T00:02:25.315Z,74.80
2017-08-30T00:04:52.944Z,74.90
2017-08-30T00:07:20.521Z,75.00
2017-08-30T00:09:48.193Z,75.00
2017-08-30T00:12:15.788Z,74.80
2017-08-30T00:14:43.352Z,75.50
2017-08-30T00:17:10.952Z,75.30
2017-08-30T00:19:39.287Z,74.60
2017-08-30T00:22:06.971Z,74.40
2017-08-30T00:24:46.499Z,74.30
2017-08-30T00:27:14.059Z,74.30
2017-08-30T00:29:41.667Z,74.40
2017-08-30T00:32:09.319Z,74.20
2017-08-30T00:34:36.918Z,74.00
2017-08-30T00:37:04.510Z,74.00
2017-08-30T00:39:32.837Z,73.80
2017-08-30T00:42:00.498Z,73.70
2017-08-30T00:44:28.099Z,73.50
2017-08-30T00:46:55.740Z,73.50
2017-08-30T00:49:23.310Z,73.60
2017-08-30T00:51:50.935Z,73.60
2017-08-30T00:54:18.560Z,73.40
2017-08-30T00:56:46.210Z,73.30
2017-08-30T00:59:13.789Z,73.20
2017-08-30T01:01:41.426Z,73.20
2017-08-30T01:04:09.735Z,73.10
2017-08-30T01:06:37.299Z,73.00
2017-08-30T01:09:05.172Z,73.10
2017-08-30T01:11:32.752Z,72.90
2017-08-30T01:14:00.367Z,73.00
2017-08-30T01:16:27.994Z,72.90
2017-08-30T01:18:56.440Z,72.80
2017-08-30T01:21:24.100Z,73.00
2017-08-30T01:23:51.744Z,72.90
2017-08-30T01:26:19.321Z,72.90
2017-08-30T01:28:46.930Z,73.00
2017-08-30T01:31:14.740Z,73.00
2017-08-30T01:33:42.355Z,72.80
2017-08-30T01:36:09.931Z,72.70
2017-08-30T01:38:37.576Z,72.50
2017-08-30T01:41:05.147Z,72.30
2017-08-30T01:43:32.769Z,73.00
2017-08-30T01:46:00.392Z,72.10
2017-08-30T01:48:27.987Z,72.10
2017-08-30T01:50:55.818Z,72.20
2017-08-30T01:53:23.449Z,72.10
2017-08-30T01:55:51.075Z,72.20
2017-08-30T01:58:18.666Z,72.10
2017-08-30T02:00:46.286Z,72.60
2017-08-30T02:03:13.876Z,72.60
2017-08-30T02:05:41.453Z,72.60
2017-08-30T02:08:09.123Z,72.50
2017-08-30T02:10:37.279Z,72.20
2017-08-30T02:13:04.897Z,71.90
2017-08-30T02:15:32.579Z,71.90
2017-08-30T02:18:00.159Z,72.20
2017-08-30T02:20:27.717Z,72.40
2017-08-30T02:22:55.382Z,72.30
2017-08-30T02:25:23.012Z,72.10
2017-08-30T02:27:50.628Z,72.30
2017-08-30T02:30:18.257Z,72.30
2017-08-30T02:32:45.854Z,72.10
2017-08-30T02:35:13.472Z,72.00
2017-08-30T02:37:41.132Z,72.00
2017-08-30T02:40:08.705Z,71.80
2017-08-30T02:42:36.293Z,71.80
2017-08-30T02:45:03.945Z,72.10
2017-08-30T02:47:31.545Z,72.30
2017-08-30T02:49:59.174Z,71.80
2017-08-30T02:52:27.098Z,71.80
2017-08-30T02:54:54.680Z,71.80
2017-08-30T02:57:22.809Z,71.70
2017-08-30T02:59:50.571Z,71.80
2017-08-30T03:02:18.178Z,71.70
2017-08-30T03:04:45.840Z,71.80
2017-08-30T03:07:13.749Z,71.50
2017-08-30T03:09:41.361Z,71.40
2017-08-30T03:12:08.972Z,71.40
2017-08-30T03:14:37.181Z,71.30
2017-08-30T03:17:04.760Z,71.00
2017-08-30T03:19:32.365Z,71.00
2017-08-30T03:21:59.962Z,70.90
2017-08-30T03:24:27.557Z,71.20
2017-08-30T03:26:55.585Z,71.40
2017-08-30T03:29:23.166Z,71.40
2017-08-30T03:31:50.764Z,71.30
2017-08-30T03:34:18.400Z,71.50
2017-08-30T03:36:46.467Z,71.40
2017-08-30T03:39:14.064Z,71.30
2017-08-30T03:41:43.812Z,71.40
2017-08-30T03:44:11.400Z,71.50
2017-08-30T03:46:38.983Z,71.40
2017-08-30T03:49:06.616Z,71.80
2017-08-30T03:51:34.233Z,72.10
2017-08-30T03:54:02.943Z,72.50
2017-08-30T03:56:31.108Z,72.60
2017-08-30T03:58:58.676Z,72.80
2017-08-30T04:01:26.604Z,73.00
2017-08-30T04:03:54.245Z,73.20
2017-08-30T04:06:21.921Z,73.60
2017-08-30T04:08:49.534Z,73.80
2017-08-30T04:11:17.194Z,74.20
2017-08-30T04:13:44.786Z,74.40
2017-08-30T04:16:12.420Z,75.00
2017-08-30T04:18:40.025Z,75.10
2017-08-30T04:21:07.636Z,75.10
2017-08-30T04:23:35.241Z,75.40
2017-08-30T04:26:02.872Z,75.60
2017-08-30T04:28:30.529Z,75.40
2017-08-30T04:30:58.144Z,75.40
2017-08-30T04:33:25.765Z,75.90
2017-08-30T04:35:53.401Z,76.10
2017-08-30T04:38:21.004Z,76.30
2017-08-30T04:40:49.459Z,76.30
2017-08-30T04:43:17.029Z,76.40
2017-08-30T04:45:44.605Z,76.80
2017-08-30T04:48:12.233Z,77.00
2017-08-30T04:50:39.906Z,77.10
2017-08-30T04:53:07.563Z,77.50
2017-08-30T04:55:35.190Z,77.80
2017-08-30T04:58:02.793Z,78.00
2017-08-30T05:00:30.450Z,78.40
2017-08-30T05:02:58.060Z,78.80
2017-08-30T05:05:25.761Z,79.10
2017-08-30T05:07:53.440Z,79.20
2017-08-30T05:10:21.026Z,79.20
2017-08-30T05:12:48.669Z,79.40
2017-08-30T05:15:16.284Z,79.30
2017-08-30T05:17:43.869Z,78.90
2017-08-30T05:20:11.492Z,78.80
2017-08-30T05:22:39.101Z,78.80
2017-08-30T05:25:06.736Z,78.60
2017-08-30T05:27:34.322Z,78.60
2017-08-30T05:30:01.957Z,78.50
2017-08-30T05:32:29.575Z,78.40
2017-08-30T05:34:57.174Z,78.60
2017-08-30T05:37:24.787Z,78.70
2017-08-30T05:39:52.428Z,78.80
2017-08-30T05:42:20.065Z,78.80
2017-08-30T05:44:47.677Z,78.80
2017-08-30T05:47:15.310Z,78.80
2017-08-30T05:49:43.379Z,78.30
2017-08-30T05:52:11.131Z,78.20
2017-08-30T05:54:38.736Z,77.70
2017-08-30T05:57:06.371Z,77.40
2017-08-30T05:59:34.022Z,76.70
2017-08-30T06:02:01.638Z,76.20
2017-08-30T06:04:29.453Z,75.80
2017-08-30T06:06:57.086Z,75.30
2017-08-30T06:09:25.631Z,75.20
2017-08-30T06:11:53.251Z,74.80
2017-08-30T06:14:20.895Z,74.20
2017-08-30T06:16:48.492Z,73.80
2017-08-30T06:19:16.085Z,72.80
2017-08-30T06:21:44.641Z,72.40
2017-08-30T06:24:12.329Z,72.30
2017-08-30T06:26:39.958Z,72.10
2017-08-30T06:29:07.622Z,72.10
2017-08-30T06:31:35.262Z,72.50
2017-08-30T06:34:03.328Z,72.80
2017-08-30T06:36:30.957Z,72.80
2017-08-30T06:38:58.576Z,73.20
2017-08-30T06:41:27.112Z,73.00
2017-08-30T06:43:54.791Z,73.80
2017-08-30T06:46:23.303Z,72.80
2017-08-30T06:48:50.908Z,73.00
2017-08-30T06:51:18.524Z,72.90
2017-08-30T06:53:46.142Z,72.90
2017-08-30T06:56:13.753Z,73.40
2017-08-30T06:58:41.471Z,72.80
2017-08-30T07:01:09.081Z,72.70
2017-08-30T07:03:36.700Z,72.30
2017-08-30T07:06:04.265Z,71.90
2017-08-30T07:08:32.015Z,71.40
2017-08-30T07:11:00.542Z,71.60
2017-08-30T07:13:28.131Z,71.30
2017-08-30T07:15:55.809Z,71.30
2017-08-30T07:18:23.536Z,71.50
2017-08-30T07:20:51.133Z,71.20
2017-08-30T07:23:18.914Z,71.00
2017-08-30T07:25:46.553Z,71.00
2017-08-30T07:28:14.189Z,70.10
2017-08-30T07:30:41.904Z,70.10
2017-08-30T07:33:09.650Z,69.70
2017-08-30T07:35:37.276Z,69.60
2017-08-30T07:38:05.645Z,69.40
2017-08-30T07:40:33.752Z,68.70
2017-08-30T07:43:01.441Z,68.60
2017-08-30T07:45:29.074Z,68.60
2017-08-30T07:47:56.713Z,69.10
2017-08-30T07:50:24.328Z,68.80
2017-08-30T07:52:51.950Z,68.40
2017-08-30T07:55:19.542Z,67.80
2017-08-30T07:57:47.153Z,67.40
2017-08-30T08:00:14.802Z,66.50
2017-08-30T08:02:42.483Z,67.10
2017-08-30T08:05:10.095Z,66.10
2017-08-30T08:07:37.727Z,66.20
2017-08-30T08:10:05.358Z,66.00
2017-08-30T08:12:32.953Z,66.30
2017-08-30T08:15:00.949Z,66.10
2017-08-30T08:17:28.602Z,65.30
2017-08-30T08:19:56.381Z,65.50
2017-08-30T08:22:24.941Z,66.10
2017-08-30T08:24:53.232Z,66.60
2017-08-30T08:27:20.834Z,67.00
2017-08-30T08:29:48.425Z,66.80
2017-08-30T08:32:16.788Z,65.70
2017-08-30T08:34:44.370Z,66.10
2017-08-30T08:37:13.228Z,64.50
2017-08-30T08:39:40.855Z,63.50
2017-08-30T08:42:08.487Z,63.60
2017-08-30T08:44:36.130Z,62.20
2017-08-30T08:47:03.710Z,60.60
2017-08-30T08:49:31.307Z,59.80
2017-08-30T08:51:59.507Z,58.50
2017-08-30T08:54:27.143Z,58.00
2017-08-30T08:56:54.729Z,57.60
2017-08-30T08:59:22.376Z,56.40
2017-08-30T09:01:50.006Z,56.10
2017-08-30T09:04:17.670Z,55.00
2017-08-30T09:06:45.267Z,55.30
2017-08-30T09:09:12.899Z,55.50
2017-08-30T09:11:40.536Z,54.40
2017-08-30T09:14:08.229Z,55.20
2017-08-30T09:16:35.873Z,54.00
2017-08-30T09:19:03.457Z,53.70
2017-08-30T09:21:31.129Z,53.80
2017-08-30T09:23:58.785Z,54.00
2017-08-30T09:26:26.414Z,53.10
2017-08-30T09:28:54.050Z,53.30
2017-08-30T09:31:21.640Z,54.20
2017-08-30T09:33:50.184Z,56.20
2017-08-30T09:36:17.814Z,56.50
2017-08-30T09:38:45.395Z,57.30
2017-08-30T09:41:12.986Z,58.20
2017-08-30T09:43:40.625Z,59.00
2017-08-30T09:46:08.212Z,59.10
2017-08-30T09:48:35.834Z,59.50
2017-08-30T09:51:03.433Z,58.90
2017-08-30T09:53:31.095Z,59.00
2017-08-30T09:55:58.733Z,59.40
2017-08-30T09:58:26.413Z,60.30
2017-08-30T10:00:54.028Z,61.90
2017-08-30T10:03:21.606Z,64.60
2017-08-30T10:05:49.239Z,66.70
2017-08-30T10:08:16.841Z,67.60
2017-08-30T10:10:44.451Z,68.30
2017-08-30T10:13:12.800Z,69.20
2017-08-30T10:15:40.409Z,70.10
2017-08-30T10:18:08.648Z,68.80
2017-08-30T10:20:36.261Z,70.60
2017-08-30T10:23:03.873Z,72.80
2017-08-30T10:25:31.474Z,74.00
2017-08-30T10:27:59.088Z,74.80
2017-08-30T10:30:26.701Z,76.40
2017-08-30T10:32:54.325Z,76.50
2017-08-30T10:35:21.937Z,76.10
2017-08-30T10:37:49.537Z,75.10
2017-08-30T10:40:17.159Z,75.70
2017-08-30T10:42:44.777Z,75.60
2017-08-30T10:45:12.725Z,76.00
2017-08-30T10:47:40.374Z,76.80
2017-08-30T10:50:08.045Z,77.70
2017-08-30T10:52:35.646Z,78.60
2017-08-30T10:55:03.881Z,78.00
2017-08-30T10:57:31.467Z,78.60
2017-08-30T10:59:59.097Z,77.30
2017-08-30T11:02:27.524Z,76.80
2017-08-30T11:04:55.144Z,76.80
2017-08-30T11:07:22.767Z,77.30
2017-08-30T11:09:50.450Z,76.00
2017-08-30T11:12:18.091Z,77.00
2017-08-30T11:14:45.659Z,76.10
2017-08-30T11:17:13.772Z,74.30
2017-08-30T11:19:41.391Z,74.40
2017-08-30T11:22:08.988Z,74.20
2017-08-30T11:24:37.359Z,72.90
2017-08-30T11:27:04.996Z,73.60
2017-08-30T11:29:32.613Z,73.10
2017-08-30T11:32:01.073Z,71.70
2017-08-30T11:34:28.691Z,71.60
2017-08-30T11:36:56.266Z,71.10
2017-08-30T11:39:24.042Z,69.20
2017-08-30T11:41:51.656Z,67.70
2017-08-30T11:44:19.272Z,67.30
2017-08-30T11:46:47.861Z,67.20
2017-08-30T11:49:15.572Z,66.60
2017-08-30T11:51:43.248Z,66.20
2017-08-30T11:54:11.770Z,66.00
2017-08-30T11:56:39.355Z,66.00
2017-08-30T11:59:06.935Z,65.80
2017-08-30T12:01:34.730Z,64.30
2017-08-30T12:04:02.286Z,63.90
2017-08-30T12:06:30.774Z,63.20
2017-08-30T12:08:58.837Z,61.80
2017-08-30T12:11:26.450Z,60.30
2017-08-30T12:13:54.097Z,59.60
2017-08-30T12:16:21.737Z,58.80
2017-08-30T12:18:49.363Z,58.20
2017-08-30T12:21:17.859Z,58.10
2017-08-30T12:23:45.467Z,58.00
2017-08-30T12:26:13.059Z,57.30
2017-08-30T12:28:40.670Z,56.80
2017-08-30T12:31:08.314Z,55.50
2017-08-30T12:33:36.277Z,55.90
2017-08-30T12:36:03.867Z,55.60
2017-08-30T12:38:37.134Z,56.00
2017-08-30T12:41:04.830Z,55.50
2017-08-30T12:43:32.504Z,54.70
2017-08-30T12:46:00.249Z,55.20
2017-08-30T12:48:28.873Z,55.80
2017-08-30T12:50:57.005Z,55.80
2017-08-30T12:53:25.016Z,55.50
2017-08-30T12:55:52.589Z,55.70
2017-08-30T12:58:20.170Z,55.40
2017-08-30T13:00:47.874Z,55.30
2017-08-30T13:03:15.503Z,55.30
2017-08-30T13:05:43.157Z,55.30
2017-08-30T13:08:10.814Z,55.40
2017-08-30T13:10:38.444Z,55.30
2017-08-30T13:13:06.028Z,55.10
2017-08-30T13:15:33.701Z,54.30
2017-08-30T13:18:01.306Z,53.80
2017-08-30T13:20:28.921Z,53.40
2017-08-30T13:22:56.916Z,53.40
2017-08-30T13:25:24.506Z,52.90
2017-08-30T13:27:52.099Z,52.60
2017-08-30T13:30:20.226Z,53.50
2017-08-30T13:32:47.827Z,53.40
2017-08-30T13:35:15.443Z,53.30
2017-08-30T13:37:43.072Z,52.80
2017-08-30T13:40:10.696Z,52.00
2017-08-30T13:42:38.272Z,51.60
2017-08-30T13:45:05.912Z,52.40
2017-08-30T13:47:33.508Z,52.40
2017-08-30T13:50:02.111Z,52.40
2017-08-30T13:52:29.696Z,52.80
2017-08-30T13:54:57.344Z,52.60
2017-08-30T13:57:25.781Z,53.00
2017-08-30T13:59:53.413Z,53.50
2017-08-30T14:02:21.057Z,53.40
2017-08-30T14:04:49.584Z,54.00
2017-08-30T14:07:17.194Z,53.60
2017-08-30T14:09:44.779Z,53.30
2017-08-30T14:12:12.390Z,53.40
2017-08-30T14:14:40.069Z,52.60
2017-08-30T14:17:07.664Z,52.70
2017-08-30T14:19:35.261Z,53.60
2017-08-30T14:22:02.937Z,52.80
2017-08-30T14:24:30.653Z,52.80
2017-08-30T14:26:58.853Z,52.80
2017-08-30T14:29:26.521Z,52.30
2017-08-30T14:31:54.128Z,52.50
2017-08-30T14:34:21.720Z,52.70
2017-08-30T14:36:49.344Z,53.00
2017-08-30T14:39:16.988Z,52.80
2017-08-30T14:41:44.610Z,53.00
2017-08-30T14:44:13.140Z,53.50
2017-08-30T14:46:40.779Z,53.40
2017-08-30T14:49:08.426Z,53.60
2017-08-30T14:51:36.068Z,54.00
2017-08-30T14:54:03.686Z,54.30
2017-08-30T14:56:31.386Z,54.70
2017-08-30T14:58:59.066Z,55.10
2017-08-30T15:01:26.693Z,55.10
2017-08-30T15:03:54.265Z,55.80
2017-08-30T15:06:21.896Z,55.80
2017-08-30T15:08:49.506Z,55.80
2017-08-30T15:11:17.144Z,55.80
2017-08-30T15:13:44.814Z,56.10
2017-08-30T15:16:12.420Z,56.20
2017-08-30T15:18:40.055Z,56.20
2017-08-30T15:21:07.722Z,56.20
2017-08-30T15:23:36.683Z,56.40
2017-08-30T15:26:04.327Z,56.50
2017-08-30T15:28:31.997Z,56.30
2017-08-30T15:30:59.588Z,55.90
2017-08-30T15:33:27.352Z,55.40
2017-08-30T15:35:55.007Z,55.20
2017-08-30T15:38:22.622Z,55.90
2017-08-30T15:40:50.223Z,57.00
2017-08-30T15:43:17.868Z,56.20
2017-08-30T15:45:46.570Z,56.10
2017-08-30T15:48:14.217Z,56.60
2017-08-30T15:50:41.849Z,56.80
2017-08-30T15:53:09.435Z,57.30
2017-08-30T15:55:37.028Z,58.00
2017-08-30T15:58:04.703Z,58.70
2017-08-30T16:00:32.305Z,59.30
2017-08-30T16:02:59.909Z,59.50
2017-08-30T16:05:27.571Z,59.70
2017-08-30T16:07:55.160Z,60.20
2017-08-30T16:10:22.754Z,60.80
2017-08-30T16:12:50.404Z,61.10
2017-08-30T16:15:18.024Z,60.80
2017-08-30T16:17:45.635Z,61.40
2017-08-30T16:20:13.311Z,61.40
2017-08-30T16:22:40.963Z,61.60
2017-08-30T16:25:08.567Z,62.50
2017-08-30T16:27:37.125Z,62.10
2017-08-30T16:30:05.313Z,62.60
2017-08-30T16:32:33.491Z,62.90
2017-08-30T16:35:01.112Z,63.30
2017-08-30T16:37:28.778Z,63.70
2017-08-30T16:39:56.377Z,64.20
2017-08-30T16:42:24.045Z,65.10
2017-08-30T16:44:52.136Z,64.50
2017-08-30T16:47:19.777Z,64.70
2017-08-30T16:49:47.413Z,64.20
2017-08-30T16:52:15.010Z,64.20
2017-08-30T16:54:42.631Z,64.20
2017-08-30T16:57:10.322Z,63.90
2017-08-30T16:59:37.916Z,63.60
2017-08-30T17:02:05.495Z,64.40
2017-08-30T17:04:33.134Z,64.60
2017-08-30T17:07:00.789Z,64.70
2017-08-30T17:09:28.406Z,64.80
2017-08-30T17:11:57.087Z,64.70
2017-08-30T17:14:24.926Z,65.00
2017-08-30T17:16:52.575Z,65.30
2017-08-30T17:19:21.390Z,65.80
2017-08-30T17:21:49.012Z,66.10
2017-08-30T17:24:16.598Z,65.70
2017-08-30T17:26:44.270Z,66.50
2017-08-30T17:29:11.954Z,66.40
2017-08-30T17:31:39.557Z,66.60
2017-08-30T17:34:07.245Z,66.40
2017-08-30T17:36:34.855Z,66.70
2017-08-30T17:39:02.478Z,67.20
2017-08-30T17:41:30.128Z,67.10
2017-08-30T17:43:57.746Z,67.00
2017-08-30T17:46:25.330Z,66.40
2017-08-30T17:48:53.074Z,66.60
2017-08-30T17:51:20.672Z,66.70
2017-08-30T17:53:48.270Z,66.80
2017-08-30T17:56:15.903Z,66.70
2017-08-30T17:58:43.492Z,66.60
2017-08-30T18:01:11.108Z,66.60
2017-08-30T18:03:38.750Z,67.10
2017-08-30T18:06:06.372Z,67.30
2017-08-30T18:08:33.994Z,67.50
2017-08-30T18:11:01.609Z,69.50
2017-08-30T18:13:29.197Z,69.40
2017-08-30T18:15:56.803Z,70.20
2017-08-30T18:18:24.466Z,69.90
2017-08-30T18:20:52.111Z,70.30
2017-08-30T18:23:19.722Z,71.20
2017-08-30T18:25:47.326Z,71.40
2017-08-30T18:28:14.930Z,72.40
2017-08-30T18:30:42.583Z,72.70
2017-08-30T18:33:10.188Z,72.70
2017-08-30T18:35:37.811Z,74.10
2017-08-30T18:38:05.495Z,73.70
2017-08-30T18:40:33.120Z,74.70
2017-08-30T18:43:00.755Z,74.20
2017-08-30T18:45:28.362Z,74.80
2017-08-30T18:47:55.982Z,74.80
2017-08-30T18:50:23.710Z,74.80
2017-08-30T18:52:51.369Z,75.60
2017-08-30T18:55:18.961Z,76.20
2017-08-30T18:57:46.623Z,76.70
2017-08-30T19:00:14.258Z,76.60
2017-08-30T19:02:41.866Z,76.90
2017-08-30T19:05:09.474Z,77.20
2017-08-30T19:07:37.806Z,77.20
2017-08-30T19:10:05.544Z,77.50
2017-08-30T19:12:33.261Z,77.80
2017-08-30T19:15:00.899Z,77.70
2017-08-30T19:17:28.597Z,78.00
2017-08-30T19:19:56.222Z,78.20
2017-08-30T19:22:23.839Z,78.20
2017-08-30T19:24:51.499Z,78.40
2017-08-30T19:27:19.122Z,78.60
2017-08-30T19:29:46.738Z,78.60
2017-08-30T19:32:14.371Z,79.10
2017-08-30T19:34:41.997Z,79.30
2017-08-30T19:37:09.598Z,79.20
2017-08-30T19:39:37.284Z,79.50
2017-08-30T19:42:04.886Z,79.50
2017-08-30T19:44:32.508Z,79.80
2017-08-30T19:47:00.139Z,81.50
2017-08-30T19:49:28.409Z,81.70
2017-08-30T19:51:56.013Z,82.40
2017-08-30T19:54:24.426Z,85.90
2017-08-30T19:56:52.043Z,86.20
2017-08-30T19:59:19.606Z,86.70
2017-08-30T20:01:47.209Z,88.10
2017-08-30T20:04:14.870Z,90.00
2017-08-30T20:06:42.481Z,90.70
2017-08-30T20:09:10.106Z,90.90
2017-08-30T20:11:37.711Z,91.00
2017-08-30T20:14:05.345Z,91.70
2017-08-30T20:16:32.965Z,91.60
2017-08-30T20:19:00.588Z,91.80
2017-08-30T20:21:28.395Z,92.00
2017-08-30T20:23:55.997Z,91.90
2017-08-30T20:26:23.651Z,91.90
2017-08-30T20:28:51.292Z,91.60
2017-08-30T20:31:19.469Z,91.60
2017-08-30T20:33:47.106Z,91.80
2017-08-30T20:36:14.791Z,91.50
2017-08-30T20:38:42.419Z,91.90
2017-08-30T20:41:10.003Z,91.50
2017-08-30T20:43:37.626Z,91.50
2017-08-30T20:46:05.238Z,91.60
2017-08-30T20:48:32.814Z,91.60
2017-08-30T20:51:00.443Z,92.00
2017-08-30T20:53:28.058Z,91.80
2017-08-30T20:55:55.664Z,91.70
2017-08-30T20:58:23.302Z,91.90
2017-08-30T21:00:51.101Z,92.10
2017-08-30T21:03:19.433Z,91.90
2017-08-30T21:05:47.167Z,91.90
2017-08-30T21:08:14.877Z,91.80
2017-08-30T21:10:42.509Z,91.90
2017-08-30T21:13:10.158Z,91.40
2017-08-30T21:15:37.798Z,91.00
2017-08-30T21:18:05.405Z,91.20
2017-08-30T21:20:33.084Z,91.20
2017-08-30T21:23:00.756Z,91.20
2017-08-30T21:25:28.385Z,91.20
2017-08-30T21:27:55.997Z,91.40
2017-08-30T21:30:23.950Z,91.50
2017-08-30T21:32:51.598Z,91.50
2017-08-30T21:35:19.224Z,91.30
2017-08-30T21:37:46.881Z,91.30
2017-08-30T21:40:14.486Z,91.00
2017-08-30T21:42:42.089Z,91.10
2017-08-30T21:45:09.763Z,91.70
2017-08-30T21:47:38.244Z,91.80
2017-08-30T21:50:05.914Z,91.40
2017-08-30T21:52:33.566Z,91.20
2017-08-30T21:55:01.153Z,91.60
2017-08-30T21:57:28.776Z,91.20
2017-08-30T21:59:56.379Z,91.20
2017-08-30T22:02:23.965Z,91.20
2017-08-30T22:04:51.573Z,91.10
2017-08-30T22:07:19.206Z,91.30
2017-08-30T22:09:46.794Z,91.00
2017-08-30T22:12:14.382Z,91.20
2017-08-30T22:14:42.015Z,91.20
2017-08-30T22:17:09.590Z,91.40
2017-08-30T22:19:37.194Z,91.40
2017-08-30T22:22:04.931Z,91.30
2017-08-30T22:24:32.591Z,91.40
2017-08-30T22:27:00.219Z,91.60
2017-08-30T22:29:27.816Z,91.30
2017-08-30T22:31:55.407Z,91.10
2017-08-30T22:34:23.072Z,91.20
2017-08-30T22:36:50.725Z,91.20
2017-08-30T22:39:18.386Z,91.60
2017-08-30T22:41:47.443Z,91.50
2017-08-30T22:44:15.054Z,91.70
2017-08-30T22:46:42.681Z,91.80
2017-08-30T22:49:11.196Z,91.40
2017-08-30T22:51:38.865Z,91.60
2017-08-30T22:54:06.474Z,91.60
2017-08-30T22:56:34.203Z,91.70
2017-08-30T22:59:01.867Z,91.60
2017-08-30T23:01:29.492Z,91.50
2017-08-30T23:03:57.116Z,91.30
2017-08-30T23:06:24.788Z,91.10
2017-08-30T23:08:52.413Z,91.10
2017-08-30T23:11:20.027Z,91.10
2017-08-30T23:13:47.705Z,91.20
2017-08-30T23:16:15.354Z,91.20
2017-08-30T23:18:43.006Z,91.20
2017-08-30T23:21:10.640Z,91.60
2017-08-30T23:23:38.234Z,91.60
2017-08-30T23:26:05.825Z,91.50
2017-08-30T23:28:34.243Z,91.60
2017-08-30T23:31:01.853Z,91.70
2017-08-30T23:33:29.539Z,91.80
2017-08-30T23:35:58.087Z,91.90
2017-08-30T23:38:25.688Z,92.20
2017-08-30T23:40:53.287Z,91.90
2017-08-30T23:43:20.900Z,92.10
2017-08-30T23:45:48.505Z,92.20
2017-08-30T23:48:16.100Z,92.40
2017-08-30T23:50:43.795Z,92.40
2017-08-30T23:53:11.362Z,92.30
2017-08-30T23:55:39.026Z,92.20
2017-08-30T23:58:06.639Z,92.20
